createdAt,value
2019-05-21T00:00:27.036Z,23.23
2019-05-21T00:02:55.675Z,23.23
2019-05-21T00:05:24.302Z,22.20
2019-05-21T00:07:52.956Z,21.23
2019-05-21T00:10:21.526Z,20.87
2019-05-21T00:12:50.166Z,19.77
2019-05-21T00:15:18.798Z,20.23
2019-05-21T00:17:47.326Z,20.13
2019-05-21T00:20:16.353Z,19.43
2019-05-21T00:22:45.041Z,17.97
2019-05-21T00:25:16.999Z,18.70
2019-05-21T00:27:44.353Z,19.20
2019-05-21T00:30:49.680Z,17.83
2019-05-21T00:33:54.966Z,17.93
2019-05-21T00:37:01.338Z,17.77
2019-05-21T00:40:06.078Z,17.53
2019-05-21T00:42:37.654Z,18.43
2019-05-21T00:45:09.276Z,17.10
2019-05-21T00:47:39.446Z,16.60
2019-05-21T00:50:08.446Z,18.87
2019-05-21T00:52:36.941Z,18.13
2019-05-21T00:55:08.442Z,17.83
2019-05-21T00:57:36.926Z,18.37
2019-05-21T01:00:07.148Z,19.40
2019-05-21T01:02:35.763Z,18.83
2019-05-21T01:05:05.188Z,18.30
2019-05-21T01:07:33.677Z,18.70
2019-05-21T01:10:02.543Z,18.07
2019-05-21T01:12:31.245Z,19.33
2019-05-21T01:14:59.797Z,20.70
2019-05-21T01:17:28.284Z,19.43
2019-05-21T01:19:56.859Z,19.97
2019-05-21T01:22:25.369Z,19.83
2019-05-21T01:24:54.270Z,19.67
2019-05-21T01:27:22.859Z,21.33
2019-05-21T01:29:51.497Z,20.47
2019-05-21T01:32:20.137Z,19.13
2019-05-21T01:34:48.646Z,19.33
2019-05-21T01:37:17.204Z,19.27
2019-05-21T01:39:45.783Z,17.73
2019-05-21T01:42:14.255Z,17.60
2019-05-21T01:44:42.743Z,17.70
2019-05-21T01:47:11.387Z,18.30
2019-05-21T01:49:39.961Z,16.97
2019-05-21T01:52:08.471Z,17.13
2019-05-21T01:54:36.952Z,16.17
2019-05-21T01:57:05.465Z,16.90
2019-05-21T01:59:34.034Z,18.60
2019-05-21T02:02:02.560Z,17.50
2019-05-21T02:04:31.216Z,18.90
2019-05-21T02:06:59.859Z,18.47
2019-05-21T02:09:28.822Z,18.77
2019-05-21T02:11:57.309Z,19.30
2019-05-21T02:14:25.938Z,18.00
2019-05-21T02:16:54.583Z,19.60
2019-05-21T02:19:23.260Z,19.20
2019-05-21T02:21:51.966Z,18.67
2019-05-21T02:24:20.515Z,20.63
2019-05-21T02:26:49.132Z,19.63
2019-05-21T02:29:17.813Z,19.40
2019-05-21T02:31:46.370Z,17.97
2019-05-21T02:34:14.901Z,16.60
2019-05-21T02:36:43.601Z,16.63
2019-05-21T02:39:12.217Z,16.67
2019-05-21T02:41:40.875Z,16.60
2019-05-21T02:44:09.453Z,15.93
2019-05-21T02:46:38.120Z,16.57
2019-05-21T02:49:06.748Z,15.33
2019-05-21T02:51:35.295Z,15.27
2019-05-21T02:54:03.863Z,17.43
2019-05-21T02:56:32.490Z,17.03
2019-05-21T02:59:00.956Z,17.10
2019-05-21T03:01:34.076Z,16.57
2019-05-21T03:04:02.679Z,16.47
2019-05-21T03:06:31.229Z,17.77
2019-05-21T03:08:59.932Z,17.40
2019-05-21T03:11:28.544Z,16.30
2019-05-21T03:13:57.070Z,17.13
2019-05-21T03:16:25.639Z,16.93
2019-05-21T03:18:54.210Z,17.27
2019-05-21T03:21:22.797Z,18.23
2019-05-21T03:23:51.382Z,18.77
2019-05-21T03:26:19.930Z,18.13
2019-05-21T03:28:48.567Z,20.60
2019-05-21T03:31:18.231Z,19.13
2019-05-21T03:33:46.789Z,18.07
2019-05-21T03:36:31.622Z,17.53
2019-05-21T03:38:45.656Z,17.87
2019-05-21T03:41:14.191Z,16.93
2019-05-21T03:43:42.742Z,16.70
2019-05-21T03:46:11.223Z,16.73
2019-05-21T03:48:39.806Z,16.90
2019-05-21T03:51:08.423Z,16.73
2019-05-21T03:53:37.015Z,18.67
2019-05-21T03:56:05.546Z,19.10
2019-05-21T03:58:34.056Z,17.40
2019-05-21T04:01:02.593Z,17.77
2019-05-21T04:03:31.129Z,20.30
2019-05-21T04:05:59.693Z,20.53
2019-05-21T04:08:28.233Z,19.97
2019-05-21T04:10:56.852Z,21.80
2019-05-21T04:13:25.749Z,21.97
2019-05-21T04:15:58.762Z,21.73
2019-05-21T04:18:32.079Z,20.03
2019-05-21T04:21:00.641Z,20.20
2019-05-21T04:23:29.261Z,16.83
2019-05-21T04:25:57.771Z,15.47
2019-05-21T04:28:26.341Z,17.53
2019-05-21T04:30:54.892Z,18.53
2019-05-21T04:33:23.493Z,18.13
2019-05-21T04:35:52.045Z,16.93
2019-05-21T04:38:20.605Z,17.87
2019-05-21T04:40:49.166Z,17.73
2019-05-21T04:43:17.673Z,18.37
2019-05-21T04:45:46.167Z,17.20
2019-05-21T04:48:14.724Z,17.70
2019-05-21T04:50:43.210Z,18.00
2019-05-21T04:53:11.766Z,18.23
2019-05-21T04:55:40.356Z,18.00
2019-05-21T04:58:08.890Z,17.40
2019-05-21T05:00:37.503Z,16.40
2019-05-21T05:03:06.124Z,17.17
2019-05-21T05:05:34.814Z,15.07
2019-05-21T05:08:03.478Z,15.00
2019-05-21T05:10:32.094Z,15.20
2019-05-21T05:13:00.728Z,14.57
2019-05-21T05:15:29.296Z,14.63
2019-05-21T05:17:57.860Z,13.73
2019-05-21T05:20:26.402Z,14.10
2019-05-21T05:22:54.906Z,14.17
2019-05-21T05:25:23.547Z,14.03
2019-05-21T05:27:52.069Z,14.27
2019-05-21T05:30:20.898Z,14.17
2019-05-21T05:32:50.141Z,16.23
2019-05-21T05:35:18.760Z,15.17
2019-05-21T05:37:48.988Z,16.17
2019-05-21T05:40:18.776Z,17.77
2019-05-21T05:42:47.339Z,18.13
2019-05-21T05:45:17.031Z,17.10
2019-05-21T05:47:45.540Z,16.30
2019-05-21T05:50:16.175Z,15.50
2019-05-21T05:52:44.737Z,15.33
2019-05-21T05:55:13.508Z,15.90
2019-05-21T05:57:42.057Z,16.33
2019-05-21T06:00:12.448Z,16.70
2019-05-21T06:02:41.131Z,14.00
2019-05-21T06:05:10.949Z,14.23
2019-05-21T06:07:39.459Z,13.17
2019-05-21T06:10:08.985Z,13.77
2019-05-21T06:12:37.552Z,13.97
2019-05-21T06:15:07.490Z,15.60
2019-05-21T06:17:36.034Z,15.77
2019-05-21T06:20:07.679Z,14.07
2019-05-21T06:22:36.331Z,14.70
2019-05-21T06:25:06.954Z,13.90
2019-05-21T06:27:35.852Z,13.97
2019-05-21T06:30:06.464Z,12.70
2019-05-21T06:32:35.018Z,13.27
2019-05-21T06:35:05.305Z,11.60
2019-05-21T06:37:33.887Z,11.83
2019-05-21T06:40:02.391Z,12.93
2019-05-21T06:42:30.941Z,12.17
2019-05-21T06:44:59.501Z,13.27
2019-05-21T06:47:27.996Z,14.07
2019-05-21T06:49:56.603Z,13.27
2019-05-21T06:52:25.143Z,13.30
2019-05-21T06:54:53.820Z,13.10
2019-05-21T06:57:22.399Z,12.67
2019-05-21T06:59:50.969Z,14.00
2019-05-21T07:02:19.545Z,13.03
2019-05-21T07:04:48.020Z,13.20
2019-05-21T07:07:16.529Z,13.17
2019-05-21T07:09:45.095Z,13.70
2019-05-21T07:12:13.592Z,13.10
2019-05-21T07:14:43.384Z,13.37
2019-05-21T07:17:11.974Z,13.13
2019-05-21T07:19:40.522Z,14.30
2019-05-21T07:22:13.090Z,13.67
2019-05-21T07:24:39.420Z,13.33
2019-05-21T07:27:08.001Z,13.87
2019-05-21T07:29:36.488Z,13.50
2019-05-21T07:32:05.085Z,14.73
2019-05-21T07:34:33.693Z,14.77
2019-05-21T07:37:02.171Z,14.23
2019-05-21T07:39:30.659Z,14.43
2019-05-21T07:41:59.159Z,16.27
2019-05-21T07:44:27.733Z,17.60
2019-05-21T07:46:56.219Z,16.47
2019-05-21T07:49:24.791Z,14.87
2019-05-21T07:51:53.338Z,14.40
2019-05-21T07:54:21.822Z,14.40
2019-05-21T07:56:50.394Z,15.20
2019-05-21T07:59:18.997Z,14.87
2019-05-21T08:01:48.399Z,15.20
2019-05-21T08:04:17.806Z,16.47
2019-05-21T08:06:46.387Z,17.27
2019-05-21T08:09:15.222Z,16.17
2019-05-21T08:11:46.894Z,16.50
2019-05-21T08:14:14.108Z,14.73
2019-05-21T08:16:42.828Z,15.67
2019-05-21T08:19:11.475Z,15.70
2019-05-21T08:21:40.017Z,14.77
2019-05-21T08:24:08.499Z,15.10
2019-05-21T08:26:37.054Z,15.63
2019-05-21T08:29:05.641Z,15.47
2019-05-21T08:31:34.280Z,14.10
2019-05-21T08:34:02.888Z,14.27
2019-05-21T08:36:31.403Z,15.37
2019-05-21T08:38:59.893Z,13.47
2019-05-21T08:41:28.391Z,13.77
2019-05-21T08:43:56.907Z,13.53
2019-05-21T08:46:25.479Z,13.37
2019-05-21T08:48:54.049Z,12.30
2019-05-21T08:51:22.627Z,13.37
2019-05-21T08:53:51.369Z,14.03
2019-05-21T08:56:19.875Z,13.80
2019-05-21T08:58:48.429Z,14.07
2019-05-21T09:01:16.995Z,14.43
2019-05-21T09:03:45.472Z,14.93
2019-05-21T09:06:14.001Z,14.47
2019-05-21T09:08:42.601Z,14.97
2019-05-21T09:11:11.229Z,14.70
2019-05-21T09:13:39.713Z,14.90
2019-05-21T09:16:08.247Z,15.13
2019-05-21T09:18:36.837Z,15.03
2019-05-21T09:21:05.476Z,14.80
2019-05-21T09:23:34.014Z,15.33
2019-05-21T09:26:02.599Z,14.43
2019-05-21T09:28:31.187Z,15.83
2019-05-21T09:31:02.017Z,14.90
2019-05-21T09:33:29.972Z,14.77
2019-05-21T09:35:58.453Z,15.83
2019-05-21T09:38:27.039Z,15.13
2019-05-21T09:40:55.599Z,14.87
2019-05-21T09:43:24.081Z,13.63
2019-05-21T09:45:52.643Z,12.57
2019-05-21T09:48:21.259Z,12.03
2019-05-21T09:50:49.907Z,12.20
2019-05-21T09:53:18.500Z,13.13
2019-05-21T09:55:47.057Z,13.10
2019-05-21T09:58:17.278Z,12.10
2019-05-21T10:00:50.268Z,11.37
2019-05-21T10:03:20.462Z,10.90
2019-05-21T10:05:49.042Z,10.37
2019-05-21T10:08:17.561Z,11.33
2019-05-21T10:10:46.080Z,10.53
2019-05-21T10:13:14.626Z,10.07
2019-05-21T10:15:43.205Z,10.93
2019-05-21T10:18:11.704Z,10.70
2019-05-21T10:20:40.332Z,10.67
2019-05-21T10:23:08.860Z,10.97
2019-05-21T10:25:37.440Z,10.80
2019-05-21T10:28:06.107Z,10.17
2019-05-21T10:30:34.654Z,10.53
2019-05-21T10:33:03.208Z,10.83
2019-05-21T10:35:31.797Z,10.83
2019-05-21T10:38:00.305Z,10.23
2019-05-21T10:40:28.900Z,10.87
2019-05-21T10:42:57.401Z,11.47
2019-05-21T10:45:25.909Z,10.73
2019-05-21T10:47:54.700Z,10.43
2019-05-21T10:50:23.340Z,9.87
2019-05-21T10:52:51.865Z,9.83
2019-05-21T10:55:20.420Z,9.67
2019-05-21T10:57:48.975Z,10.67
2019-05-21T11:00:22.921Z,9.87
2019-05-21T11:02:54.928Z,11.00
2019-05-21T11:05:43.472Z,10.87
2019-05-21T11:08:23.502Z,11.00
2019-05-21T11:10:43.311Z,10.37
2019-05-21T11:13:11.877Z,11.17
2019-05-21T11:15:40.502Z,11.10
2019-05-21T11:18:10.935Z,10.40
2019-05-21T11:20:39.469Z,10.50
2019-05-21T11:23:08.685Z,9.97
2019-05-21T11:25:37.184Z,10.47
2019-05-21T11:28:06.317Z,10.20
2019-05-21T11:30:35.119Z,10.57
2019-05-21T11:33:03.704Z,9.57
2019-05-21T11:35:35.589Z,9.23
2019-05-21T11:38:02.504Z,9.60
2019-05-21T11:40:31.450Z,8.60
2019-05-21T11:42:59.934Z,9.70
2019-05-21T11:45:32.352Z,9.80
2019-05-21T11:47:58.780Z,9.47
2019-05-21T11:50:27.314Z,10.33
2019-05-21T11:52:55.821Z,11.80
2019-05-21T11:55:24.415Z,9.83
2019-05-21T11:57:52.956Z,8.67
2019-05-21T12:00:23.362Z,8.60
2019-05-21T12:02:51.918Z,9.30
2019-05-21T12:05:20.537Z,10.27
2019-05-21T12:07:49.115Z,10.33
2019-05-21T12:10:17.653Z,10.13
2019-05-21T12:12:46.251Z,9.83
2019-05-21T12:15:15.199Z,11.13
2019-05-21T12:17:43.761Z,10.43
2019-05-21T12:20:13.008Z,9.20
2019-05-21T12:22:41.545Z,8.90
2019-05-21T12:25:10.568Z,8.37
2019-05-21T12:27:39.262Z,9.70
2019-05-21T12:30:08.927Z,9.43
2019-05-21T12:32:37.585Z,9.17
2019-05-21T12:35:07.149Z,8.30
2019-05-21T12:37:35.631Z,8.40
2019-05-21T12:40:06.833Z,9.17
2019-05-21T12:42:35.400Z,8.27
2019-05-21T12:45:05.419Z,8.23
2019-05-21T12:47:34.077Z,8.30
2019-05-21T12:50:02.726Z,8.17
2019-05-21T12:52:33.797Z,8.27
2019-05-21T12:55:01.809Z,8.37
2019-05-21T12:57:30.437Z,8.43
2019-05-21T12:59:58.980Z,7.80
2019-05-21T13:02:27.541Z,8.20
2019-05-21T13:04:56.186Z,8.07
2019-05-21T13:07:24.747Z,7.97
2019-05-21T13:09:53.299Z,7.73
2019-05-21T13:12:21.875Z,8.40
2019-05-21T13:14:50.356Z,7.67
2019-05-21T13:17:18.925Z,8.63
2019-05-21T13:19:47.571Z,7.83
2019-05-21T13:22:16.106Z,7.30
2019-05-21T13:24:44.688Z,7.70
2019-05-21T13:27:13.194Z,7.67
2019-05-21T13:29:41.708Z,8.00
2019-05-21T13:32:10.306Z,7.57
2019-05-21T13:34:38.852Z,8.03
2019-05-21T13:37:07.488Z,8.57
2019-05-21T13:39:48.870Z,8.17
2019-05-21T13:42:06.190Z,8.50
2019-05-21T13:44:34.759Z,8.37
2019-05-21T13:47:03.495Z,8.03
2019-05-21T13:49:32.116Z,8.23
2019-05-21T13:52:00.685Z,7.83
2019-05-21T13:54:29.226Z,7.93
2019-05-21T13:56:57.733Z,7.53
2019-05-21T13:59:26.314Z,8.60
2019-05-21T14:01:54.977Z,8.17
2019-05-21T14:04:23.602Z,8.40
2019-05-21T14:06:52.304Z,8.20
2019-05-21T14:09:20.786Z,7.60
2019-05-21T14:11:49.289Z,8.53
2019-05-21T14:14:17.833Z,8.10
2019-05-21T14:16:46.386Z,7.70
2019-05-21T14:19:15.047Z,7.93
2019-05-21T14:21:44.165Z,8.10
2019-05-21T14:24:12.749Z,7.60
2019-05-21T14:26:41.247Z,7.13
2019-05-21T14:29:09.738Z,7.40
2019-05-21T14:31:38.218Z,7.53
2019-05-21T14:34:06.796Z,7.30
2019-05-21T14:36:35.437Z,8.70
2019-05-21T14:39:07.303Z,9.20
2019-05-21T14:41:35.849Z,8.73
2019-05-21T14:44:05.261Z,9.60
2019-05-21T14:46:33.743Z,9.40
2019-05-21T14:49:02.219Z,9.03
2019-05-21T14:51:30.720Z,9.23
2019-05-21T14:54:05.608Z,9.80
2019-05-21T14:56:34.176Z,9.63
2019-05-21T14:59:02.771Z,8.93
2019-05-21T15:01:31.354Z,9.13
2019-05-21T15:03:59.938Z,9.37
2019-05-21T15:06:28.475Z,9.40
2019-05-21T15:08:57.133Z,9.67
2019-05-21T15:11:25.712Z,9.30
2019-05-21T15:13:54.298Z,9.13
2019-05-21T15:16:22.877Z,9.53
2019-05-21T15:18:51.345Z,8.80
2019-05-21T15:21:21.496Z,9.30
2019-05-21T15:23:50.024Z,9.30
2019-05-21T15:26:18.569Z,9.50
2019-05-21T15:28:47.140Z,8.53
2019-05-21T15:31:15.684Z,8.90
2019-05-21T15:33:44.528Z,8.53
2019-05-21T15:36:13.040Z,8.90
2019-05-21T15:38:49.923Z,9.10
2019-05-21T15:41:12.734Z,9.10
2019-05-21T15:43:41.536Z,9.27
2019-05-21T15:46:10.902Z,10.30
2019-05-21T15:48:39.374Z,9.57
2019-05-21T15:51:08.016Z,9.73
2019-05-21T15:53:36.498Z,9.80
2019-05-21T15:56:05.077Z,9.87
2019-05-21T15:58:33.644Z,10.03
2019-05-21T16:01:02.137Z,10.97
2019-05-21T16:03:30.630Z,11.07
2019-05-21T16:06:00.296Z,9.57
2019-05-21T16:08:28.978Z,10.23
2019-05-21T16:10:57.514Z,10.13
2019-05-21T16:13:26.096Z,10.63
2019-05-21T16:15:55.233Z,10.83
2019-05-21T16:18:24.158Z,11.90
2019-05-21T16:20:52.732Z,11.93
2019-05-21T16:23:22.581Z,13.43
2019-05-21T16:25:52.604Z,13.17
2019-05-21T16:28:21.117Z,12.50
2019-05-21T16:30:49.663Z,11.40
2019-05-21T16:33:18.472Z,12.90
2019-05-21T16:35:46.970Z,11.90
2019-05-21T16:38:15.634Z,11.37
2019-05-21T16:40:45.617Z,11.10
2019-05-21T16:43:14.126Z,12.90
2019-05-21T16:45:42.776Z,14.00
2019-05-21T16:48:11.416Z,14.53
2019-05-21T16:50:40.059Z,13.60
2019-05-21T16:53:08.605Z,13.33
2019-05-21T16:55:37.233Z,12.83
2019-05-21T16:58:05.824Z,13.90
2019-05-21T17:00:34.471Z,14.27
2019-05-21T17:03:03.056Z,12.03
2019-05-21T17:05:31.598Z,12.20
2019-05-21T17:08:00.176Z,11.73
2019-05-21T17:10:29.524Z,12.60
2019-05-21T17:12:58.013Z,13.53
2019-05-21T17:15:26.604Z,12.90
2019-05-21T17:17:55.175Z,12.77
2019-05-21T17:20:23.818Z,12.00
2019-05-21T17:22:52.406Z,12.00
2019-05-21T17:25:21.767Z,11.87
2019-05-21T17:27:50.478Z,10.50
2019-05-21T17:30:19.635Z,10.77
2019-05-21T17:32:48.144Z,10.90
2019-05-21T17:35:17.604Z,10.97
2019-05-21T17:37:46.231Z,10.17
2019-05-21T17:40:15.778Z,9.73
2019-05-21T17:42:44.556Z,10.57
2019-05-21T17:45:13.806Z,9.40
2019-05-21T17:47:42.294Z,9.23
2019-05-21T17:50:11.529Z,8.50
2019-05-21T17:52:40.108Z,8.63
2019-05-21T17:55:09.021Z,8.40
2019-05-21T17:57:37.797Z,9.13
2019-05-21T18:00:10.424Z,8.43
2019-05-21T18:02:39.543Z,9.10
2019-05-21T18:05:09.206Z,8.83
2019-05-21T18:07:38.570Z,8.30
2019-05-21T18:10:09.228Z,9.30
2019-05-21T18:12:38.931Z,9.37
2019-05-21T18:15:10.302Z,9.10
2019-05-21T18:17:39.416Z,8.73
2019-05-21T18:20:09.789Z,8.50
2019-05-21T18:22:40.220Z,7.90
2019-05-21T18:25:10.188Z,8.00
2019-05-21T18:27:39.097Z,7.90
2019-05-21T18:30:09.333Z,6.80
2019-05-21T18:32:38.274Z,7.20
2019-05-21T18:35:08.580Z,7.77
2019-05-21T18:37:38.541Z,7.73
2019-05-21T18:40:10.873Z,8.30
2019-05-21T18:42:39.442Z,8.47
2019-05-21T18:45:09.883Z,7.83
2019-05-21T18:47:38.599Z,7.53
2019-05-21T18:50:08.869Z,9.07
2019-05-21T18:52:38.935Z,9.57
2019-05-21T18:55:07.864Z,9.73
2019-05-21T18:57:36.516Z,9.30
2019-05-21T19:00:10.533Z,11.67
2019-05-21T19:02:39.179Z,10.27
2019-05-21T19:05:08.500Z,11.27
2019-05-21T19:07:37.099Z,10.70
2019-05-21T19:10:10.344Z,10.27
2019-05-21T19:12:39.798Z,11.17
2019-05-21T19:15:10.244Z,10.97
2019-05-21T19:17:38.925Z,10.87
2019-05-21T19:20:09.725Z,10.80
2019-05-21T19:22:38.453Z,11.97
2019-05-21T19:25:08.556Z,10.57
2019-05-21T19:27:37.175Z,11.73
2019-05-21T19:30:07.930Z,10.97
2019-05-21T19:32:36.582Z,11.37
2019-05-21T19:35:06.303Z,11.50
2019-05-21T19:37:34.858Z,12.47
2019-05-21T19:40:03.792Z,13.07
2019-05-21T19:42:32.387Z,14.30
2019-05-21T19:45:00.965Z,12.50
2019-05-21T19:47:29.543Z,14.07
2019-05-21T19:49:58.078Z,13.60
2019-05-21T19:52:26.655Z,13.20
2019-05-21T19:54:55.240Z,14.27
2019-05-21T19:57:25.598Z,13.87
2019-05-21T19:59:54.217Z,13.97
2019-05-21T20:02:22.908Z,14.47
2019-05-21T20:04:51.719Z,14.97
2019-05-21T20:07:21.645Z,15.70
2019-05-21T20:09:51.613Z,13.80
2019-05-21T20:12:20.828Z,13.50
2019-05-21T20:14:49.388Z,15.07
2019-05-21T20:17:18.179Z,14.23
2019-05-21T20:19:47.720Z,15.43
2019-05-21T20:22:16.925Z,17.23
2019-05-21T20:24:46.520Z,14.40
2019-05-21T20:27:15.528Z,15.90
2019-05-21T20:29:44.364Z,15.90
2019-05-21T20:32:14.168Z,15.33
2019-05-21T20:34:42.718Z,16.27
2019-05-21T20:37:12.999Z,16.17
2019-05-21T20:39:42.939Z,16.47
2019-05-21T20:42:13.081Z,15.60
2019-05-21T20:44:43.062Z,17.23
2019-05-21T20:47:13.469Z,17.37
2019-05-21T20:49:44.328Z,18.67
2019-05-21T20:52:18.703Z,17.73
2019-05-21T20:54:47.411Z,17.07
2019-05-21T20:57:16.920Z,18.43
2019-05-21T20:59:45.622Z,17.37
2019-05-21T21:02:14.538Z,17.37
2019-05-21T21:04:44.935Z,17.63
2019-05-21T21:07:14.657Z,19.23
2019-05-21T21:09:43.297Z,18.13
2019-05-21T21:12:12.659Z,18.20
2019-05-21T21:14:41.565Z,18.17
2019-05-21T21:17:11.491Z,17.03
2019-05-21T21:19:43.221Z,16.50
2019-05-21T21:22:11.800Z,14.33
2019-05-21T21:24:41.192Z,16.20
2019-05-21T21:27:11.740Z,13.43
2019-05-21T21:29:40.306Z,13.13
2019-05-21T21:32:09.125Z,11.87
2019-05-21T21:34:37.621Z,12.47
2019-05-21T21:37:06.982Z,11.47
2019-05-21T21:39:35.506Z,11.13
2019-05-21T21:42:05.534Z,11.90
2019-05-21T21:44:34.562Z,11.10
2019-05-21T21:47:03.412Z,10.80
2019-05-21T21:49:32.576Z,10.20
2019-05-21T21:52:03.748Z,8.90
2019-05-21T21:54:32.384Z,10.33
2019-05-21T21:57:01.039Z,9.57
2019-05-21T21:59:29.526Z,10.70
2019-05-21T22:02:01.673Z,10.37
2019-05-21T22:04:32.820Z,10.70
2019-05-21T22:07:01.829Z,10.40
2019-05-21T22:09:31.891Z,9.10
2019-05-21T22:12:02.464Z,8.97
2019-05-21T22:14:31.967Z,9.40
2019-05-21T22:17:00.855Z,8.17
2019-05-21T22:19:29.491Z,8.50
2019-05-21T22:21:58.113Z,8.20
2019-05-21T22:24:27.323Z,8.13
2019-05-21T22:26:56.007Z,8.90
2019-05-21T22:29:25.048Z,9.50
2019-05-21T22:31:53.634Z,9.63
2019-05-21T22:34:22.135Z,10.00
2019-05-21T22:36:50.760Z,9.97
2019-05-21T22:39:23.840Z,9.93
2019-05-21T22:41:52.552Z,9.57
2019-05-21T22:44:21.034Z,10.37
2019-05-21T22:46:50.163Z,10.17
2019-05-21T22:49:18.743Z,9.53
2019-05-21T22:51:47.350Z,9.47
2019-05-21T22:54:15.860Z,8.90
2019-05-21T22:56:44.416Z,9.70
2019-05-21T22:59:13.228Z,9.30
2019-05-21T23:01:42.777Z,8.90
2019-05-21T23:04:11.482Z,9.73
2019-05-21T23:06:41.334Z,9.17
2019-05-21T23:09:09.858Z,9.40
2019-05-21T23:11:38.402Z,9.03
2019-05-21T23:14:08.057Z,8.70
2019-05-21T23:16:36.679Z,9.33
2019-05-21T23:19:06.797Z,9.47
2019-05-21T23:21:35.437Z,8.97
2019-05-21T23:24:06.093Z,8.57
2019-05-21T23:26:34.925Z,8.90
2019-05-21T23:29:04.146Z,8.60
2019-05-21T23:31:32.778Z,8.23
2019-05-21T23:34:01.854Z,8.53
2019-05-21T23:36:30.772Z,8.13
2019-05-21T23:39:00.024Z,9.47
2019-05-21T23:41:29.964Z,8.87
2019-05-21T23:43:59.826Z,9.50
2019-05-21T23:46:29.729Z,9.50
2019-05-21T23:48:58.238Z,9.70
2019-05-21T23:51:26.810Z,9.43
2019-05-21T23:53:55.453Z,9.70
2019-05-21T23:56:24.229Z,9.80
2019-05-21T23:58:52.895Z,9.67
